Austin, Indiana
Current Conditions -  °F | °C
As of 2:53 PM on Monday 24 Nov 2014 (Local Time) from KBAK Reporting Station
Overcast Overcast  
Wind Chill: 33°   Ceiling: 3400
Heat Index: 43°   Visibility: 10mi
Dew Point: 36°   Wind: 24mph
Humidity: 76%   Direction: 240°WSW
Pressure: 29.67"   Gusts: 33mph
Location:  38.76°N, 85.81°W
Report Text: KBAK 241953Z 24021G29KT 10SM BKN034 OVC041 06/02 A2967
Loading
Personal Weather Stations






























Interactive Weather Map New forecast layout! Learn more

10-Day Weather Forecast

Advertisements
Track Severe Weather on mobile